METAR stanice u blizini

 

LYBE - Beograd / Surčin, Srbija
Ažurirano: 25/02/2024 05:00
Vedro
Vedro
 Pravac vetra JI
Vetar: JI 9 km/h
Temperatura: 9°C
Osećaj hladnoće: 7°C
Tačka rose: 7°C
Vlažnost: 87%
Pritisak: 1012 hPa
Pregled: Vedro
Vidljivost: greater than 10 km
2024/02/25 04:00 LYBE 250400Z 14005KT CAVOK 09/07 Q1012 NOSIG
LYBT - Beograd / Batajnica, Srbija
Ažurirano: 25/02/2024 05:00
Vedro
Vedro
 Pravac vetra IJI
Vetar: IJI 7 km/h
Temperatura: 7°C
Osećaj hladnoće: 6°C
Tačka rose: 7°C
Vlažnost: 100%
Pritisak: 1013 hPa
Pregled: Vedro
Vidljivost: greater than 10 km
2024/02/25 04:00 LYBT 250400Z 11004KT CAVOK 07/07 Q1013 NOSIG
LYVR - Vršac, Srbija
Ažurirano: 25/02/2024 05:00
Vedro
Vedro
 Pravac vetra JJI
Vetar: JJI 15 km/h
Temperatura: 13°C
Tačka rose: 6°C
Vlažnost: 63%
Pritisak: 1013 hPa
Pregled: Vedro
Vidljivost: greater than 10 km
2024/02/25 04:00 LYVR 250400Z AUTO 16008KT 120V190 CAVOK 13/06 Q1013
 
LYKV - Lađevci, Srbija
Ažurirano: 25/02/2024 05:00
Partly Cloudy
Partly Cloudy
 Pravac vetra J
Vetar: J 7 km/h
Temperatura: 10°C
Osećaj hladnoće: 9°C
Tačka rose: 7°C
Vlažnost: 82%
Pritisak: 1013 hPa
Oblaci: Partly Cloudy
Vidljivost: 10 km
Cloud details: Partly Cloudy 1829 m
2024/02/25 04:00 LYKV 250400Z 18004KT 150V220 9999 SCT060 10/07 Q1013 NOSIG
LYNI - Niš, Srbija
Ažurirano: 25/02/2024 05:00
Vedro
Vedro
 Pravac vetra ISI
Vetar: ISI 6 km/h
Temperatura: 11°C
Tačka rose: 6°C
Vlažnost: 72%
Pritisak: 1015 hPa
Pregled: Vedro
Vidljivost: greater than 10 km
2024/02/25 04:00 LYNI 250400Z 06003KT 040V100 CAVOK 11/06 Q1015 NOSIG
BKPR - Priština, Srbija
Ažurirano: 25/02/2024 05:30
Mostly Cloudy
Mostly Cloudy
 Pravac vetra J
Vetar: J 6 km/h
Temperatura: 8°C
Tačka rose: 5°C
Vlažnost: 82%
Pritisak: 1015 hPa
Oblaci: Mostly Cloudy
Vidljivost: 10 km
Cloud details: Mostly Cloudy 1829 m
2024/02/25 04:30 BKPR 250430Z 17003KT 130V190 9999 BKN060 08/05 Q1015 NOSIG
 
LHPP - Pecs / Pogany, Hungary
Ažurirano: 25/02/2024 04:45
Mist, Pretežno oblačno
Mist, Pretežno oblačno
 Pravac vetra I
Vetar: I 7 km/h
Temperatura: 7°C
Osećaj hladnoće: 6°C
Tačka rose: 7°C
Vlažnost: 100%
Pritisak: 1012 hPa
Pregled: Mist
Oblaci: Mostly Cloudy
Vidljivost: 5 km
Cloud details: Mostly Cloudy 244 m
2024/02/25 03:45 LHPP 250345Z AUTO 09004KT 5000 BR BKN008 07/07 Q1012
LHUD - Szeged, Hungary
Ažurirano: 04/07/2019 01:45
NOT Current
Vedro
Vedro
 Pravac vetra S
Vetar: S 7 km/h
Temperatura: 18°C
Tačka rose: 13°C
Vlažnost: 73%
Pritisak: 1019 hPa
Pregled: Vedro
Vidljivost: greater than 10 km
2019/07/03 23:45 LHUD 032345Z 35004KT CAVOK 18/13 Q1019
LRTR - Timisoara, Romania
Ažurirano: 25/02/2024 05:00
Vedro
Vedro
 Pravac vetra I
Vetar: I 9 km/h
Temperatura: 8°C
Osećaj hladnoće: 6°C
Tačka rose: 8°C
Vlažnost: 100%
Pritisak: 1013 hPa
Pregled: Vedro
Vidljivost: greater than 10 km
2024/02/25 04:00 LRTR 250400Z 08005KT CAVOK 08/08 Q1013
 
LRCV - Craiova, Romania
Ažurirano: 25/02/2024 05:00
Vedro
Vedro
 Pravac vetra I
Vetar: I 7 km/h
Temperatura: 10°C
Osećaj hladnoće: 9°C
Tačka rose: 6°C
Vlažnost: 76%
Pritisak: 1015 hPa
Pregled: Vedro
Vidljivost: greater than 10 km
2024/02/25 04:00 LRCV 250400Z 09004KT CAVOK 10/06 Q1015
LBSF - Sofia, Bulgaria
Ažurirano: 25/02/2024 05:00
Slaba kiša, Oblačno
Slaba kiša, Oblačno
 Pravac vetra SI
Vetar: SI 13 km/h
Temperatura: 10°C
Osećaj hladnoće: 8°C
Tačka rose: 6°C
Vlažnost: 76%
Pritisak: 1016 hPa
Pregled: Light Rain
Oblaci: Oblačno
Vidljivost: 10 km
Cloud details: Partly Cloudy 2164 m
Oblačno 2560 m
2024/02/25 04:00 LBSF 250400Z AUTO 04007KT 9999 -RA SCT071/// OVC084/// 10/06 Q1016 NOSIG
LWSK - Skoplje, Makedonija
Ažurirano: 25/02/2024 05:00
Oblačno
Oblačno
 Pravac vetra JI
Vetar: JI 13 km/h
Temperatura: 12°C
Tačka rose: 7°C
Vlažnost: 72%
Pritisak: 1016 hPa
Oblaci: Oblačno
Vidljivost: 10 km
Cloud details: Oblačno 1981 m
2024/02/25 04:00 LWSK 250400Z 14007KT 9999 OVC065 12/07 Q1016 NOSIG
 
LYPG - Podgorica, Crna Gora
Ažurirano: 25/02/2024 05:00
Slaba kiša, Oblačno
Slaba kiša, Oblačno
 Pravac vetra SSZ
Vetar: SSZ 9 km/h
Temperatura: 9°C
Osećaj hladnoće: 7°C
Tačka rose: 9°C
Vlažnost: 100%
Pritisak: 1015 hPa
Pregled: Light Rain
Oblaci: Oblačno
Vidljivost: 10 km
Cloud details: Few Clouds 792 m
Mostly Cloudy 1219 m
Oblačno 2134 m
2024/02/25 04:00 LYPG 250400Z 34005KT 9999 -RA FEW026 BKN040 OVC070 09/09 Q1015 NOSIG
LQSA - Sarajevo, Bosna i Hercegovina
Ažurirano: 25/02/2024 05:00
Mostly Cloudy
Mostly Cloudy
 Pravac vetra varies
Vetar: varies 2 km/h
Temperatura: 6°C
Tačka rose: 6°C
Vlažnost: 100%
Pritisak: 1012 hPa
Oblaci: Mostly Cloudy
Vidljivost: 10 km
Cloud details: Mostly Cloudy 1524 m
2024/02/25 04:00 LQSA 250400Z VRB01KT 9999 BKN050 06/06 Q1012
LDOS - Osijek, Hrvatksa
Ažurirano: 25/02/2024 05:00
Mist, Delimično oblačno
Mist, Delimično oblačno
 Pravac vetra JJI
Vetar: JJI 6 km/h
Temperatura: 6°C
Tačka rose: 6°C
Vlažnost: 100%
Pritisak: 1012 hPa
Pregled: Mist
Oblaci: Partly Cloudy
Vidljivost: 2 km
2024/02/25 04:00 LDOS 250400Z 15003KT 2000 BR NSC 06/06 Q1012